X  Sluiten METAR luchtvaart weer gegevens      EHRD Rotterdam The Hague Airport
Temperatuur
7°C Temperatuur
2°C Dauwpunt
71% Vochtigheid



Wind
5 KM/U
3 MPH
1 M/S
3 KTS



30°
NNO
Huidig weer

Helder Helder
Luchtdruk 1011.85 (hPa) - 29.88 (inHg)
Zicht 6 (mijl) - 9.7 (km)
Vliegveld
Vliegveld code EHRD

Locatie : Rotterdam The Hague Airport
Afstand: 20 (km)

Metar:
EHRD 041825Z AUTO 03003KT 9999 NSC 07/02 Q1012 NOSIG

Tijd: 04-03-2024 18:25 CET